createdAt,value
2022-10-06T00:01:06.880Z,17.20
2022-10-06T00:03:35.004Z,17.20
2022-10-06T00:06:08.049Z,17.10
2022-10-06T00:08:39.262Z,16.90
2022-10-06T00:11:10.198Z,16.80
2022-10-06T00:13:39.073Z,16.70
2022-10-06T00:16:12.684Z,16.70
2022-10-06T00:18:40.939Z,16.70
2022-10-06T00:21:10.319Z,16.60
2022-10-06T00:23:39.177Z,16.60
2022-10-06T00:26:11.742Z,16.50
2022-10-06T00:28:40.423Z,16.50
2022-10-06T00:31:08.636Z,16.50
2022-10-06T00:33:37.531Z,16.50
2022-10-06T00:36:08.042Z,16.50
2022-10-06T00:38:37.901Z,16.50
2022-10-06T00:41:06.475Z,16.70
2022-10-06T00:43:49.021Z,16.70
2022-10-06T00:46:30.894Z,16.80
2022-10-06T00:49:08.855Z,16.70
2022-10-06T00:51:41.821Z,16.80
2022-10-06T00:54:12.968Z,16.80
2022-10-06T00:56:42.372Z,16.70
2022-10-06T00:59:14.093Z,16.70
2022-10-06T01:01:49.097Z,16.70
2022-10-06T01:04:19.244Z,16.80
2022-10-06T01:06:53.601Z,16.80
2022-10-06T01:09:24.655Z,16.80
2022-10-06T01:11:57.392Z,16.80
2022-10-06T01:14:26.544Z,16.80
2022-10-06T01:17:00.866Z,16.80
2022-10-06T01:19:47.537Z,16.80
2022-10-06T01:22:20.240Z,16.90
2022-10-06T01:24:52.878Z,16.90
2022-10-06T01:27:24.656Z,16.90
2022-10-06T01:29:55.366Z,16.90
2022-10-06T01:32:25.952Z,16.80
2022-10-06T01:34:54.853Z,16.80
2022-10-06T01:37:23.717Z,16.80
2022-10-06T01:39:55.560Z,16.70
2022-10-06T01:42:25.400Z,16.80
2022-10-06T01:44:53.595Z,16.80
2022-10-06T01:47:21.774Z,16.90
2022-10-06T01:49:50.069Z,16.90
2022-10-06T01:52:18.404Z,16.90
2022-10-06T01:54:47.473Z,17.00
2022-10-06T01:57:17.500Z,17.00
2022-10-06T01:59:45.788Z,17.00
2022-10-06T02:02:14.657Z,17.10
2022-10-06T02:04:43.060Z,17.10
2022-10-06T02:07:11.620Z,17.20
2022-10-06T02:09:44.789Z,17.40
2022-10-06T02:12:14.249Z,17.30
2022-10-06T02:14:44.016Z,17.40
2022-10-06T02:17:12.901Z,17.40
2022-10-06T02:19:41.099Z,17.40
2022-10-06T02:22:09.273Z,17.40
2022-10-06T02:24:38.355Z,17.40
2022-10-06T02:27:07.340Z,17.40
2022-10-06T02:29:36.407Z,17.40
2022-10-06T02:32:07.147Z,17.40
2022-10-06T02:34:36.238Z,17.40
2022-10-06T02:37:05.489Z,17.40
2022-10-06T02:39:33.798Z,17.30
2022-10-06T02:42:03.508Z,17.30
2022-10-06T02:44:32.456Z,17.30
2022-10-06T02:47:00.660Z,17.20
2022-10-06T02:49:31.546Z,17.20
2022-10-06T02:52:00.215Z,17.20
2022-10-06T02:54:28.400Z,17.10
2022-10-06T02:56:57.217Z,17.10
2022-10-06T02:59:25.374Z,17.10
2022-10-06T03:01:53.747Z,17.00
2022-10-06T03:04:23.157Z,17.00
2022-10-06T03:06:53.091Z,17.00
2022-10-06T03:09:23.940Z,16.90
2022-10-06T03:11:53.284Z,16.90
2022-10-06T03:14:28.713Z,16.90
2022-10-06T03:16:57.762Z,16.90
2022-10-06T03:19:28.983Z,16.80
2022-10-06T03:21:58.522Z,16.80
2022-10-06T03:24:35.817Z,16.80
2022-10-06T03:27:04.659Z,16.70
2022-10-06T03:29:34.154Z,16.70
2022-10-06T03:32:03.966Z,16.70
2022-10-06T03:34:33.248Z,16.70
2022-10-06T03:37:05.116Z,16.70
2022-10-06T03:39:34.599Z,16.60
2022-10-06T03:42:03.297Z,16.60
2022-10-06T03:44:34.852Z,16.50
2022-10-06T03:47:03.711Z,16.60
2022-10-06T03:49:33.072Z,16.50
2022-10-06T03:52:01.422Z,16.50
2022-10-06T03:54:35.121Z,16.50
2022-10-06T03:57:03.963Z,16.50
2022-10-06T03:59:34.672Z,16.40
2022-10-06T04:02:05.425Z,16.40
2022-10-06T04:04:38.439Z,16.40
2022-10-06T04:07:11.184Z,16.40
2022-10-06T04:09:42.334Z,16.40
2022-10-06T04:12:12.743Z,16.30
2022-10-06T04:14:43.033Z,16.40
2022-10-06T04:17:13.290Z,16.30
2022-10-06T04:19:42.710Z,16.40
2022-10-06T04:22:11.369Z,16.40
2022-10-06T04:24:40.935Z,16.30
2022-10-06T04:27:27.772Z,16.30
2022-10-06T04:30:13.342Z,16.30
2022-10-06T04:32:42.325Z,16.30
2022-10-06T04:35:10.813Z,16.20
2022-10-06T04:37:39.572Z,16.20
2022-10-06T04:40:10.952Z,16.20
2022-10-06T04:42:40.208Z,16.10
2022-10-06T04:45:12.773Z,16.10
2022-10-06T04:47:43.091Z,16.10
2022-10-06T04:50:12.041Z,16.10
2022-10-06T04:52:51.364Z,16.00
2022-10-06T04:55:20.974Z,16.00
2022-10-06T04:57:49.367Z,16.00
2022-10-06T05:00:27.193Z,16.00
2022-10-06T05:02:57.183Z,15.90
2022-10-06T05:05:25.568Z,15.90
2022-10-06T05:07:56.671Z,15.90
2022-10-06T05:10:28.504Z,15.80
2022-10-06T05:12:58.176Z,15.90
2022-10-06T05:15:28.102Z,15.90
2022-10-06T05:17:57.357Z,15.80
2022-10-06T05:20:25.723Z,15.80
2022-10-06T05:22:55.353Z,15.80
2022-10-06T05:25:24.815Z,15.80
2022-10-06T05:27:54.569Z,15.80
2022-10-06T05:30:23.299Z,15.70
2022-10-06T05:32:52.575Z,15.70
2022-10-06T05:35:21.466Z,15.70
2022-10-06T05:37:49.690Z,15.70
2022-10-06T05:40:18.388Z,15.60
2022-10-06T05:42:46.524Z,15.60
2022-10-06T05:45:16.364Z,15.60
2022-10-06T05:47:44.924Z,15.50
2022-10-06T05:50:13.132Z,15.50
2022-10-06T05:52:42.467Z,15.50
2022-10-06T05:55:11.298Z,15.50
2022-10-06T05:57:40.335Z,15.50
2022-10-06T06:00:10.732Z,15.50
2022-10-06T06:02:42.573Z,15.50
2022-10-06T06:05:12.499Z,15.50
2022-10-06T06:07:41.627Z,15.50
2022-10-06T06:10:10.479Z,15.50
2022-10-06T06:12:38.913Z,15.50
2022-10-06T06:15:50.014Z,15.40
2022-10-06T06:18:20.588Z,15.50
2022-10-06T06:20:57.254Z,15.50
2022-10-06T06:23:26.587Z,15.50
2022-10-06T06:26:02.474Z,15.40
2022-10-06T06:28:33.534Z,15.40
2022-10-06T06:31:04.988Z,15.40
2022-10-06T06:33:38.111Z,15.40
2022-10-06T06:36:14.928Z,15.40
2022-10-06T06:38:43.777Z,15.40
2022-10-06T06:41:17.880Z,15.50
2022-10-06T06:43:47.228Z,15.50
2022-10-06T06:46:27.769Z,15.40
2022-10-06T06:49:04.450Z,15.50
2022-10-06T06:51:40.714Z,15.50
2022-10-06T06:54:12.863Z,15.40
2022-10-06T06:56:45.942Z,15.50
2022-10-06T06:59:14.853Z,15.40
2022-10-06T07:01:49.033Z,15.40
2022-10-06T07:04:22.815Z,15.40
2022-10-06T07:06:58.339Z,15.40
2022-10-06T07:09:33.049Z,15.50
2022-10-06T07:12:11.573Z,15.50
2022-10-06T07:14:59.202Z,15.50
2022-10-06T07:17:47.422Z,15.60
2022-10-06T07:20:36.089Z,15.60
2022-10-06T07:23:23.504Z,15.60
2022-10-06T07:25:54.018Z,15.70
2022-10-06T07:28:22.895Z,15.80
2022-10-06T07:30:52.916Z,15.80
2022-10-06T07:33:22.479Z,15.90
2022-10-06T07:35:55.016Z,15.90
2022-10-06T07:38:25.945Z,16.00
2022-10-06T07:41:17.771Z,16.00
2022-10-06T07:43:46.918Z,16.00
2022-10-06T07:46:18.438Z,15.90
2022-10-06T07:48:54.254Z,15.90
2022-10-06T07:51:24.854Z,15.90
2022-10-06T07:53:54.132Z,15.90
2022-10-06T07:56:28.093Z,16.00
2022-10-06T07:58:59.393Z,16.00
2022-10-06T08:01:29.803Z,16.00
2022-10-06T08:03:58.599Z,15.90
2022-10-06T08:06:28.125Z,16.00
2022-10-06T08:08:56.711Z,16.00
2022-10-06T08:11:25.473Z,16.00
2022-10-06T08:13:53.791Z,16.00
2022-10-06T08:16:25.842Z,16.00
2022-10-06T08:18:55.909Z,16.10
2022-10-06T08:21:28.916Z,16.10
2022-10-06T08:23:59.797Z,16.10
2022-10-06T08:26:30.094Z,16.30
2022-10-06T08:29:00.666Z,16.40
2022-10-06T08:31:28.876Z,16.40
2022-10-06T08:33:59.103Z,16.50
2022-10-06T08:36:31.917Z,16.60
2022-10-06T08:39:01.390Z,16.60
2022-10-06T08:41:40.784Z,16.70
2022-10-06T08:44:30.761Z,16.80
2022-10-06T08:47:02.669Z,16.90
2022-10-06T08:49:38.862Z,17.00
2022-10-06T08:52:26.481Z,17.10
2022-10-06T08:55:08.686Z,17.10
2022-10-06T08:57:52.107Z,17.10
2022-10-06T09:00:22.130Z,17.30
2022-10-06T09:02:51.882Z,17.40
2022-10-06T09:05:25.578Z,17.30
2022-10-06T09:08:20.964Z,17.40
2022-10-06T09:11:05.381Z,17.40
2022-10-06T09:13:41.209Z,17.40
2022-10-06T09:16:17.072Z,17.50
2022-10-06T09:19:09.347Z,17.60
2022-10-06T09:21:45.979Z,17.60
2022-10-06T09:24:19.912Z,17.60
2022-10-06T09:26:52.640Z,17.70
2022-10-06T09:29:21.391Z,17.70
2022-10-06T09:31:50.603Z,17.70
2022-10-06T09:34:27.014Z,17.60
2022-10-06T09:37:02.852Z,17.60
2022-10-06T09:39:37.094Z,17.80
2022-10-06T09:42:16.890Z,17.70
2022-10-06T09:44:59.921Z,17.60
2022-10-06T09:47:45.197Z,17.70
2022-10-06T09:50:22.352Z,17.70
2022-10-06T09:53:16.836Z,17.70
2022-10-06T09:55:54.615Z,17.90
2022-10-06T09:58:34.887Z,18.00
2022-10-06T10:01:07.387Z,18.00
2022-10-06T10:04:15.636Z,18.10
2022-10-06T10:06:41.785Z,18.10
2022-10-06T10:09:29.050Z,18.20
2022-10-06T10:12:28.009Z,18.40
2022-10-06T10:15:01.423Z,18.60
2022-10-06T10:17:43.996Z,18.90
2022-10-06T10:20:29.607Z,19.20
2022-10-06T10:23:02.371Z,19.50
2022-10-06T10:25:48.380Z,19.70
2022-10-06T10:28:50.930Z,20.00
2022-10-06T10:31:32.240Z,20.20
2022-10-06T10:34:23.572Z,20.60
2022-10-06T10:37:02.661Z,20.80
2022-10-06T10:39:38.688Z,21.00
2022-10-06T10:42:19.595Z,21.00
2022-10-06T10:44:59.396Z,21.00
2022-10-06T10:47:35.377Z,20.90
2022-10-06T10:50:13.667Z,20.70
2022-10-06T10:52:47.811Z,20.60
2022-10-06T10:55:27.222Z,20.40
2022-10-06T10:58:01.264Z,20.30
2022-10-06T11:00:35.720Z,20.10
2022-10-06T11:03:03.938Z,20.00
2022-10-06T11:06:12.552Z,19.90
2022-10-06T11:08:55.142Z,19.90
2022-10-06T11:11:51.920Z,19.90
2022-10-06T11:14:38.003Z,19.90
2022-10-06T11:17:27.278Z,19.90
2022-10-06T11:20:05.671Z,19.90
2022-10-06T11:22:45.306Z,19.90
2022-10-06T11:25:34.167Z,19.90
2022-10-06T11:28:11.905Z,20.00
2022-10-06T11:31:00.423Z,20.00
2022-10-06T11:33:45.730Z,19.90
2022-10-06T11:36:30.169Z,19.80
2022-10-06T11:39:08.430Z,19.70
2022-10-06T11:41:46.406Z,19.60
2022-10-06T11:44:25.336Z,19.70
2022-10-06T11:46:59.697Z,19.90
2022-10-06T11:49:53.406Z,19.90
2022-10-06T11:52:55.807Z,20.20
2022-10-06T11:55:28.870Z,20.40
2022-10-06T11:58:41.392Z,20.80
2022-10-06T12:01:04.669Z,21.00
2022-10-06T12:04:14.392Z,21.10
2022-10-06T12:07:06.296Z,21.40
2022-10-06T12:10:32.438Z,21.80
2022-10-06T12:13:51.304Z,22.60
2022-10-06T12:19:26.346Z,22.60
2022-10-06T12:22:08.707Z,22.30
2022-10-06T12:24:45.937Z,21.90
2022-10-06T12:27:42.828Z,21.70
2022-10-06T12:30:25.916Z,21.60
2022-10-06T12:32:57.430Z,21.50
2022-10-06T12:35:32.230Z,21.50
2022-10-06T12:38:04.768Z,21.50
2022-10-06T12:40:55.183Z,21.50
2022-10-06T12:43:57.950Z,21.50
2022-10-06T12:46:38.505Z,21.50
2022-10-06T12:49:44.202Z,21.30
2022-10-06T12:52:45.208Z,21.30
2022-10-06T12:55:42.927Z,21.10
2022-10-06T12:58:20.549Z,21.00
2022-10-06T13:00:49.651Z,21.40
2022-10-06T13:03:24.653Z,21.90
2022-10-06T13:05:58.953Z,21.90
2022-10-06T13:08:30.070Z,22.20
2022-10-06T13:11:21.843Z,22.30
2022-10-06T13:13:54.430Z,22.40
2022-10-06T13:16:27.390Z,22.50
2022-10-06T13:18:59.157Z,22.80
2022-10-06T13:21:30.869Z,23.50
2022-10-06T13:23:59.217Z,24.30
2022-10-06T13:26:32.705Z,25.00
2022-10-06T13:29:02.599Z,26.00
2022-10-06T13:31:33.372Z,25.60
2022-10-06T13:34:05.520Z,25.00
2022-10-06T13:36:38.868Z,24.20
2022-10-06T13:39:13.037Z,24.10
2022-10-06T13:41:46.864Z,24.20
2022-10-06T13:44:35.932Z,24.90
2022-10-06T13:47:09.325Z,25.30
2022-10-06T13:49:47.400Z,26.00
2022-10-06T13:52:19.970Z,25.70
2022-10-06T13:54:54.132Z,26.00
2022-10-06T13:57:38.928Z,26.10
2022-10-06T14:00:20.507Z,26.30
2022-10-06T14:02:51.922Z,26.60
2022-10-06T14:05:29.332Z,26.60
2022-10-06T14:08:02.289Z,26.20
2022-10-06T14:10:47.077Z,25.90
2022-10-06T14:13:20.495Z,25.70
2022-10-06T14:15:53.304Z,25.20
2022-10-06T14:18:26.284Z,24.50
2022-10-06T14:20:55.635Z,23.50
2022-10-06T14:23:50.066Z,22.80
2022-10-06T14:26:21.403Z,22.10
2022-10-06T14:28:52.828Z,21.50
2022-10-06T14:31:24.320Z,21.20
2022-10-06T14:33:55.364Z,21.00
2022-10-06T14:36:27.116Z,21.00
2022-10-06T14:38:57.265Z,20.80
2022-10-06T14:41:28.355Z,20.50
2022-10-06T14:43:58.371Z,20.20
2022-10-06T14:46:28.425Z,19.90
2022-10-06T14:48:57.583Z,19.70
2022-10-06T14:51:28.572Z,19.60
2022-10-06T14:53:59.619Z,19.40
2022-10-06T14:56:31.764Z,19.30
2022-10-06T14:59:02.347Z,19.20
2022-10-06T15:01:33.786Z,19.20
2022-10-06T15:04:04.860Z,19.20
2022-10-06T15:06:51.060Z,19.20
2022-10-06T15:09:19.381Z,19.10
2022-10-06T15:14:39.718Z,19.20
2022-10-06T15:17:10.580Z,19.20
2022-10-06T15:19:40.339Z,19.20
2022-10-06T15:22:10.045Z,19.00
2022-10-06T15:24:38.158Z,19.10
2022-10-06T15:27:25.159Z,19.10
2022-10-06T15:29:53.428Z,19.00
2022-10-06T15:32:23.432Z,19.00
2022-10-06T15:34:52.723Z,18.80
2022-10-06T15:37:21.332Z,18.60
2022-10-06T15:39:49.405Z,18.70
2022-10-06T15:42:19.980Z,18.60
2022-10-06T15:44:50.461Z,18.50
2022-10-06T15:47:18.856Z,18.40
2022-10-06T15:49:49.286Z,18.30
2022-10-06T15:52:17.596Z,18.30
2022-10-06T15:54:46.729Z,18.20
2022-10-06T15:57:20.724Z,18.10
2022-10-06T15:59:49.776Z,18.00
2022-10-06T16:02:20.529Z,18.00
2022-10-06T16:05:17.760Z,17.90
2022-10-06T16:07:46.016Z,17.90
2022-10-06T16:10:14.183Z,17.90
2022-10-06T16:12:42.261Z,17.80
2022-10-06T16:15:11.432Z,17.80
2022-10-06T16:17:40.169Z,17.80
2022-10-06T16:20:11.967Z,17.90
2022-10-06T16:22:40.166Z,17.70
2022-10-06T16:25:09.865Z,17.70
2022-10-06T16:27:39.528Z,17.60
2022-10-06T16:30:10.125Z,17.60
2022-10-06T16:32:38.348Z,17.50
2022-10-06T16:35:12.594Z,17.40
2022-10-06T16:43:41.864Z,17.30
2022-10-06T16:46:13.432Z,17.20
2022-10-06T16:48:44.479Z,17.10
2022-10-06T16:51:17.107Z,17.00
2022-10-06T16:53:48.794Z,17.00
2022-10-06T16:56:20.844Z,16.90
2022-10-06T16:58:53.686Z,16.80
2022-10-06T17:01:24.849Z,16.70
2022-10-06T17:03:59.631Z,16.50
2022-10-06T17:06:29.683Z,16.40
2022-10-06T17:08:58.329Z,16.20
2022-10-06T17:11:26.940Z,16.10
2022-10-06T17:13:58.743Z,16.00
2022-10-06T17:16:30.461Z,15.90
2022-10-06T17:18:59.496Z,15.80
2022-10-06T17:21:47.340Z,15.70
2022-10-06T17:24:19.144Z,15.60
2022-10-06T17:26:50.257Z,15.50
2022-10-06T17:29:24.315Z,15.50
2022-10-06T17:31:56.322Z,15.50
2022-10-06T17:34:30.422Z,15.50
2022-10-06T17:37:02.991Z,15.40
2022-10-06T17:39:32.241Z,15.40
2022-10-06T17:42:00.415Z,15.50
2022-10-06T17:44:31.501Z,15.40
2022-10-06T17:47:01.474Z,15.40
2022-10-06T17:49:34.537Z,15.50
2022-10-06T17:52:05.770Z,15.50
2022-10-06T17:54:35.127Z,15.50
2022-10-06T17:57:03.561Z,15.50
2022-10-06T17:59:33.082Z,15.60
2022-10-06T18:02:03.974Z,15.60
2022-10-06T18:04:34.214Z,15.60
2022-10-06T18:07:03.835Z,15.60
2022-10-06T18:09:31.965Z,15.60
2022-10-06T18:12:00.351Z,15.50
2022-10-06T18:14:33.210Z,15.60
2022-10-06T18:17:04.280Z,15.60
2022-10-06T18:19:34.853Z,15.70
2022-10-06T18:22:10.632Z,15.60
2022-10-06T18:24:40.527Z,15.60
2022-10-06T18:27:09.409Z,15.70
2022-10-06T18:29:39.873Z,15.60
2022-10-06T18:33:10.825Z,15.60
2022-10-06T18:37:46.688Z,15.60
2022-10-06T18:40:15.324Z,15.60
2022-10-06T18:42:43.453Z,15.60
2022-10-06T18:45:34.271Z,15.60
2022-10-06T18:48:23.439Z,15.60
2022-10-06T18:51:01.150Z,15.60
2022-10-06T18:53:32.603Z,15.60
2022-10-06T18:56:00.656Z,15.60
2022-10-06T18:58:28.723Z,15.60
2022-10-06T19:00:56.934Z,15.60
2022-10-06T19:03:28.270Z,15.60
2022-10-06T19:05:56.474Z,15.60
2022-10-06T19:08:24.592Z,15.60
2022-10-06T19:11:08.995Z,15.60
2022-10-06T19:13:38.966Z,15.50
2022-10-06T19:16:07.799Z,15.60
2022-10-06T19:18:39.688Z,15.60
2022-10-06T19:21:09.809Z,15.50
2022-10-06T19:23:39.948Z,15.50
2022-10-06T19:26:12.466Z,15.50
2022-10-06T19:28:41.343Z,15.40
2022-10-06T19:31:12.925Z,15.40
2022-10-06T19:33:43.171Z,15.30
2022-10-06T19:36:11.614Z,15.30
2022-10-06T19:38:40.835Z,15.20
2022-10-06T19:41:28.058Z,15.20
2022-10-06T19:43:56.094Z,15.00
2022-10-06T19:46:24.871Z,14.90
2022-10-06T19:48:56.449Z,14.90
2022-10-06T19:51:25.215Z,14.70
2022-10-06T19:53:53.806Z,14.70
2022-10-06T19:56:25.245Z,14.60
2022-10-06T19:58:54.153Z,14.60
2022-10-06T20:01:22.466Z,14.50
2022-10-06T20:03:50.679Z,14.30
2022-10-06T20:06:20.883Z,14.40
2022-10-06T20:08:48.924Z,14.30
2022-10-06T20:11:21.305Z,14.20
2022-10-06T20:13:52.000Z,14.30
2022-10-06T20:16:21.391Z,14.20
2022-10-06T20:18:50.682Z,14.20
2022-10-06T20:21:21.457Z,14.10
2022-10-06T20:23:50.740Z,14.10
2022-10-06T20:26:22.702Z,14.10
2022-10-06T20:28:52.207Z,14.10
2022-10-06T20:31:25.231Z,14.10
2022-10-06T20:33:56.244Z,14.10
2022-10-06T20:36:26.501Z,14.00
2022-10-06T20:39:12.814Z,14.00
2022-10-06T20:41:42.308Z,14.00
2022-10-06T20:44:13.553Z,14.00
2022-10-06T20:46:42.683Z,13.90
2022-10-06T20:49:15.136Z,13.90
2022-10-06T20:51:46.622Z,13.90
2022-10-06T20:54:16.281Z,14.00
2022-10-06T20:56:45.126Z,13.90
2022-10-06T20:59:14.898Z,13.90
2022-10-06T21:01:43.171Z,13.90
2022-10-06T21:04:11.900Z,13.90
2022-10-06T21:06:40.641Z,13.90
2022-10-06T21:09:13.253Z,13.90
2022-10-06T21:11:41.512Z,13.90
2022-10-06T21:14:12.522Z,13.90
2022-10-06T21:16:45.586Z,13.90
2022-10-06T21:22:02.577Z,13.90
2022-10-06T21:24:30.767Z,13.90
2022-10-06T21:26:59.837Z,13.80
2022-10-06T21:29:28.588Z,13.90
2022-10-06T21:31:58.191Z,13.80
2022-10-06T21:34:26.961Z,13.80
2022-10-06T21:36:55.487Z,13.80
2022-10-06T21:39:23.763Z,13.80
2022-10-06T21:41:51.952Z,13.80
2022-10-06T21:44:20.505Z,13.80
2022-10-06T21:46:53.102Z,13.80
2022-10-06T21:49:24.851Z,13.80
2022-10-06T21:51:55.252Z,13.80
2022-10-06T21:54:25.142Z,13.70
2022-10-06T21:56:54.041Z,13.70
2022-10-06T21:59:22.394Z,13.70
2022-10-06T22:01:50.872Z,13.70
2022-10-06T22:04:20.056Z,13.70
2022-10-06T22:06:51.120Z,13.70
2022-10-06T22:09:22.412Z,13.70
2022-10-06T22:11:51.319Z,13.70
2022-10-06T22:14:21.191Z,13.70
2022-10-06T22:16:50.671Z,13.70
2022-10-06T22:19:19.284Z,13.70
2022-10-06T22:21:50.551Z,13.70
2022-10-06T22:24:21.437Z,13.80
2022-10-06T22:26:51.617Z,13.70
2022-10-06T22:29:21.744Z,13.70
2022-10-06T22:31:50.450Z,13.60
2022-10-06T22:34:22.231Z,13.70
2022-10-06T22:36:53.482Z,13.70
2022-10-06T22:39:22.288Z,13.70
2022-10-06T22:41:50.840Z,13.70
2022-10-06T22:44:19.119Z,13.70
2022-10-06T22:46:47.945Z,13.70
2022-10-06T22:49:16.297Z,13.60
2022-10-06T22:51:44.938Z,13.60
2022-10-06T22:57:07.467Z,13.50
2022-10-06T22:59:35.919Z,13.50
2022-10-06T23:02:04.149Z,13.60
2022-10-06T23:04:32.958Z,13.60
2022-10-06T23:07:01.204Z,13.60
2022-10-06T23:09:31.211Z,13.60
2022-10-06T23:11:59.472Z,13.60
2022-10-06T23:14:27.899Z,13.60
2022-10-06T23:16:56.255Z,13.60
2022-10-06T23:19:24.985Z,13.60
2022-10-06T23:21:53.214Z,13.70
2022-10-06T23:24:22.272Z,13.70
2022-10-06T23:26:51.768Z,13.80
2022-10-06T23:29:21.455Z,13.80
2022-10-06T23:31:49.702Z,13.80
2022-10-06T23:34:18.100Z,13.70
2022-10-06T23:36:46.374Z,13.70
2022-10-06T23:39:15.057Z,13.70
2022-10-06T23:41:43.470Z,13.60
2022-10-06T23:44:13.829Z,13.60
2022-10-06T23:46:42.189Z,13.70
2022-10-06T23:49:10.705Z,13.60
2022-10-06T23:51:39.608Z,13.70
2022-10-06T23:54:08.537Z,13.70
2022-10-06T23:56:37.440Z,13.80
2022-10-06T23:59:05.946Z,13.80
